• Join FlightAware (Why Join?)
  • Login
  • US Flag 
11:51AM EDT


 

Airport Tracker/Info


-or-


 

Live Flight TrackerFlight Track Log ✈ EJA839 ✈ 07-Jun-2013 ✈ KDQH - KHXD

Flight Track Log - Related Links

Times and Time Zones

All times are in EDT time to prevent confusion due to time zone crossing. See the EJA839 flight status page for this flight to view local times or setup timezone preferences in your user account.

Time Position Orientation Groundspeed Altitude Reporting Facility
EDT Latitude Longitude Course Direction KTS MPH feet Rate Location/Type
04:23PM 31.6153 -82.2050 72° East  Level FlightAware Approximate
04:24PM 31.5044 -82.6294 72° East 367 422 9,200  Level Jacksonville Center
04:25PM 31.5314 -82.5319 72° East 344 396 11,500 2,100 Climbing Jacksonville Center
04:26PM 31.5581 -82.4294 73° East 327 376 13,400 1,500 Climbing Jacksonville Center
04:27PM 31.5786 -82.3439 74° East 327 376 14,500 1,440 Climbing Jacksonville Center
04:28PM 31.6136 -82.2144 72° East 342 394 16,300 1,980 Climbing Jacksonville Center
04:29PM 31.6442 -82.1019 72° East 358 412 18,500 1,320 Climbing Jacksonville Center
04:30PM 31.6747 -81.9869 73° East 358 412 19,000 240 Climbing Jacksonville Center
04:31PM 31.7053 -81.8742 72° East 386 444 19,000  Level Jacksonville Center
04:32PM 31.7417 -81.7347 73° East 406 467 19,000 -900 Level Jacksonville Center
04:33PM 31.7739 -81.6242 71° East 400 460 17,300 -1,980 Descending Jacksonville Center
04:34PM 31.8081 -81.4917 73° East 391 450 15,100 -1,980 Descending Jacksonville Center
04:35PM 31.8506 -81.3786 66° East 373 429 13,400 -1,800 Descending Jacksonville Center
04:36PM 31.8806 -81.2753 71° East 363 418 11,500 -2,040 Descending Jacksonville Center
04:37PM 31.9064 -81.1622 75° East 327 376 9,400 -2,040 Descending Jacksonville Center
04:38PM 31.9636 -81.0903 47° Northeast 294 338 7,500 -2,040 Descending Jacksonville Center
04:39PM 32.0275 -81.0328 37° Northeast 285 328 5,400 -2,100 Descending Jacksonville Center
04:40PM 32.0769 -80.9850 39° Northeast 264 304 3,400 -1,500 Descending Jacksonville Center
04:41PM 32.1347 -80.9322 38° Northeast 242 278 2,400 -720 Descending Jacksonville Center
04:42PM 32.1778 -80.8800 46° Northeast 226 260 2,000 -420 Descending Jacksonville Center
04:44PM 32.1976 -80.8023 52° Northeast  Level Estimated
04:51PM 32.2244 -80.6975 90° East  Level Estimated
04:52PM 32.2244 -80.6975 90° East  Level Estimated
04:53PM 32.2244 -80.6975 90° East  Level Estimated
04:54PM 32.2244 -80.6975 90° East  Level Estimated
04:55PM 32.2244 -80.6975 90° East  Level Estimated